F/V Le Belier — FOUS — position and weather

sailwx.info

Track history (hours):
 
Tides and Currents Weather Stations Pressure Air Temp Water Temp Dewpoint Dewpoint Depression Visibility Wind Speed Wind Dir Waves Ship Positions

F/V Le Belier

Last reported at 2017-Nov-18 16:18 UTC. Time now 2017-Nov-21 00:53 UTC.
Position N 46°51' W 003°18'.

Length 16 m.

Type: Fishing. MMSI: 227145200.

Date/timePositionNaut miles runAvg speedWind from/ knotsBaromVisibWave heightAir tempDewpointWater temp
2017-Nov-18 16:18N 46°51' W 003°18'2 4.0
2017-Nov-18 15:55N 46°52' W 003°18'2 3.9
2017-Nov-18 15:19N 46°54' W 003°18'3 3.8
2017-Nov-18 14:30N 46°57' W 003°21'15 3.4
2017-Nov-18 10:05N 47°11' W 003°26'0 3.7
2017-Nov-18 09:58N 47°12' W 003°26'2 3.8
2017-Nov-18 09:26N 47°11' W 003°23'0 0.2
2017-Nov-18 08:25N 47°11' W 003°23'2 3.3
2017-Nov-18 07:54N 47°12' W 003°26'4 3.3
2017-Nov-18 06:46N 47°12' W 003°31'1 3.7
2017-Nov-18 06:29N 47°13' W 003°32'2 3.7
2017-Nov-18 06:00N 47°13' W 003°35'2 4.0
2017-Nov-18 05:30N 47°13' W 003°38'1 2.5
2017-Nov-18 05:00N 47°14' W 003°39'2 3.7
2017-Nov-18 04:30N 47°15' W 003°42'2 3.7
2017-Nov-18 04:00N 47°15' W 003°44'2 3.5
2017-Nov-18 03:20N 47°14' W 003°48'2 3.5
2017-Nov-18 02:53N 47°13' W 003°47'18 1.0
2017-Nov-17 08:49N 47°03' W 003°26'10 3.1
2017-Nov-17 05:28N 47°09' W 003°38'2 3.5
2017-Nov-17 04:59N 47°09' W 003°40'7 3.6
2017-Nov-17 03:02N 47°09' W 003°51'1 4.7
2017-Nov-17 02:53N 47°09' W 003°52'0 0.4
2017-Nov-17 02:28N 47°09' W 003°52'5 3.8
2017-Nov-17 01:08N 47°09' W 003°44'1 3.8
2017-Nov-17 00:52N 47°09' W 003°43'3 3.7
2017-Nov-17 00:07N 47°09' W 003°39'1 3.8
2017-Nov-16 23:47N 47°09' W 003°37'1 3.7
2017-Nov-16 23:27N 47°10' W 003°35'12 3.3
2017-Nov-16 19:45N 46°60' W 003°25'4 1.5
2017-Nov-16 17:05N 47°03' W 003°25'3 4.0
2017-Nov-16 16:23N 47°06' W 003°26'4 4.3
2017-Nov-16 15:24N 47°10' W 003°27'4 8.0
2017-Nov-16 14:56N 47°14' W 003°27'3 8.0
2017-Nov-16 14:31N 47°17' W 003°27'4 7.8
2017-Nov-16 14:01N 47°21' W 003°27'4 7.5
2017-Nov-16 13:31N 47°25' W 003°27'4 7.4
2017-Nov-16 13:01N 47°29' W 003°26'4 7.1
2017-Nov-16 12:31N 47°32' W 003°26'4 7.2
2017-Nov-16 12:01N 47°35' W 003°23'4 7.7
2017-Nov-16 11:30N 47°39' W 003°23'4 7.0
2017-Nov-16 11:00N 47°43' W 003°22'1 0.3
2017-Nov-16 07:03N 47°44' W 003°22'0 0.0
2017-Nov-16 07:00N 47°44' W 003°22'0 0.0
2017-Nov-16 06:31N 47°44' W 003°22'0 0.0
2017-Nov-16 06:00N 47°44' W 003°22'0 0.0
2017-Nov-16 05:31N 47°44' W 003°22'0 0.0
2017-Nov-16 05:01N 47°44' W 003°22'0 0.0
2017-Nov-16 04:31N 47°44' W 003°22'0 0.0
2017-Nov-16 04:01N 47°44' W 003°22'0 0.0
2017-Nov-16 03:30N 47°44' W 003°22'0 0.0
2017-Nov-16 03:01N 47°44' W 003°22'0 0.0
2017-Nov-16 02:31N 47°44' W 003°22'0 0.0
2017-Nov-16 02:01N 47°44' W 003°22'0 0.0
2017-Nov-16 01:31N 47°44' W 003°22'2 4.1
2017-Nov-16 01:00N 47°42' W 003°23'4 7.1
2017-Nov-16 00:31N 47°40' W 003°28'4 7.1
2017-Nov-16 00:01N 47°39' W 003°32'4 7.3
2017-Nov-15 23:30N 47°36' W 003°35'3 7.0
2017-Nov-15 23:00N 47°33' W 003°38'4 7.0
2017-Nov-15 22:30N 47°30' W 003°41'8 4.4
2017-Nov-15 20:40N 47°22' W 003°46'4 3.7
2017-Nov-15 19:36N 47°19' W 003°43'0 3.9
2017-Nov-15 19:30N 47°18' W 003°43'2 3.7
2017-Nov-15 18:55N 47°16' W 003°42'2 3.9
2017-Nov-15 18:28N 47°15' W 003°41'4 3.8
2017-Nov-15 17:28N 47°11' W 003°39'11 0.9
2017-Nov-15 04:38N 47°11' W 003°56'0 0.7
2017-Nov-15 04:17N 47°12' W 003°56'1 2.9
2017-Nov-15 03:47N 47°10' W 003°56'4 2.0
2017-Nov-15 01:41N 47°07' W 003°53'4 1.8
2017-Nov-14 23:23N 47°10' W 003°56'  
Track history (hours):
 
Tides and Currents Weather Stations Pressure Air Temp Water Temp Dewpoint Dewpoint Depression Visibility Wind Speed Wind Dir Waves Ship Positions

F/V Le Belier

Last reported at 2017-Nov-18 16:18 UTC. Time now 2017-Nov-21 00:53 UTC.
Position N 46°51' W 003°18'.

Length 16 m.

Type: Fishing. MMSI: 227145200.

Date/timePositionNaut miles runAvg speedWind from/ knotsBaromVisibWave heightAir tempDewpointWater temp
2017-Nov-18 16:18N 46°51' W 003°18'2 4.0
2017-Nov-18 15:55N 46°52' W 003°18'2 3.9
2017-Nov-18 15:19N 46°54' W 003°18'3 3.8
2017-Nov-18 14:30N 46°57' W 003°21'15 3.4
2017-Nov-18 10:05N 47°11' W 003°26'0 3.7
2017-Nov-18 09:58N 47°12' W 003°26'2 3.8
2017-Nov-18 09:26N 47°11' W 003°23'0 0.2
2017-Nov-18 08:25N 47°11' W 003°23'2 3.3
2017-Nov-18 07:54N 47°12' W 003°26'4 3.3
2017-Nov-18 06:46N 47°12' W 003°31'1 3.7
2017-Nov-18 06:29N 47°13' W 003°32'2 3.7
2017-Nov-18 06:00N 47°13' W 003°35'2 4.0
2017-Nov-18 05:30N 47°13' W 003°38'1 2.5
2017-Nov-18 05:00N 47°14' W 003°39'2 3.7
2017-Nov-18 04:30N 47°15' W 003°42'2 3.7
2017-Nov-18 04:00N 47°15' W 003°44'2 3.5
2017-Nov-18 03:20N 47°14' W 003°48'2 3.5
2017-Nov-18 02:53N 47°13' W 003°47'18 1.0
2017-Nov-17 08:49N 47°03' W 003°26'10 3.1
2017-Nov-17 05:28N 47°09' W 003°38'2 3.5
2017-Nov-17 04:59N 47°09' W 003°40'7 3.6
2017-Nov-17 03:02N 47°09' W 003°51'1 4.7
2017-Nov-17 02:53N 47°09' W 003°52'0 0.4
2017-Nov-17 02:28N 47°09' W 003°52'5 3.8
2017-Nov-17 01:08N 47°09' W 003°44'1 3.8
2017-Nov-17 00:52N 47°09' W 003°43'3 3.7
2017-Nov-17 00:07N 47°09' W 003°39'1 3.8
2017-Nov-16 23:47N 47°09' W 003°37'1 3.7
2017-Nov-16 23:27N 47°10' W 003°35'12 3.3
2017-Nov-16 19:45N 46°60' W 003°25'4 1.5
2017-Nov-16 17:05N 47°03' W 003°25'3 4.0
2017-Nov-16 16:23N 47°06' W 003°26'4 4.3
2017-Nov-16 15:24N 47°10' W 003°27'4 8.0
2017-Nov-16 14:56N 47°14' W 003°27'3 8.0
2017-Nov-16 14:31N 47°17' W 003°27'4 7.8
2017-Nov-16 14:01N 47°21' W 003°27'4 7.5
2017-Nov-16 13:31N 47°25' W 003°27'4 7.4
2017-Nov-16 13:01N 47°29' W 003°26'4 7.1
2017-Nov-16 12:31N 47°32' W 003°26'4 7.2
2017-Nov-16 12:01N 47°35' W 003°23'4 7.7
2017-Nov-16 11:30N 47°39' W 003°23'4 7.0
2017-Nov-16 11:00N 47°43' W 003°22'1 0.3
2017-Nov-16 07:03N 47°44' W 003°22'0 0.0
2017-Nov-16 07:00N 47°44' W 003°22'0 0.0
2017-Nov-16 06:31N 47°44' W 003°22'0 0.0
2017-Nov-16 06:00N 47°44' W 003°22'0 0.0
2017-Nov-16 05:31N 47°44' W 003°22'0 0.0
2017-Nov-16 05:01N 47°44' W 003°22'0 0.0
2017-Nov-16 04:31N 47°44' W 003°22'0 0.0
2017-Nov-16 04:01N 47°44' W 003°22'0 0.0
2017-Nov-16 03:30N 47°44' W 003°22'0 0.0
2017-Nov-16 03:01N 47°44' W 003°22'0 0.0
2017-Nov-16 02:31N 47°44' W 003°22'0 0.0
2017-Nov-16 02:01N 47°44' W 003°22'0 0.0
2017-Nov-16 01:31N 47°44' W 003°22'2 4.1
2017-Nov-16 01:00N 47°42' W 003°23'4 7.1
2017-Nov-16 00:31N 47°40' W 003°28'4 7.1
2017-Nov-16 00:01N 47°39' W 003°32'4 7.3
2017-Nov-15 23:30N 47°36' W 003°35'3 7.0
2017-Nov-15 23:00N 47°33' W 003°38'4 7.0
2017-Nov-15 22:30N 47°30' W 003°41'8 4.4
2017-Nov-15 20:40N 47°22' W 003°46'4 3.7
2017-Nov-15 19:36N 47°19' W 003°43'0 3.9
2017-Nov-15 19:30N 47°18' W 003°43'2 3.7
2017-Nov-15 18:55N 47°16' W 003°42'2 3.9
2017-Nov-15 18:28N 47°15' W 003°41'4 3.8
2017-Nov-15 17:28N 47°11' W 003°39'11 0.9
2017-Nov-15 04:38N 47°11' W 003°56'0 0.7
2017-Nov-15 04:17N 47°12' W 003°56'1 2.9
2017-Nov-15 03:47N 47°10' W 003°56'4 2.0
2017-Nov-15 01:41N 47°07' W 003°53'4 1.8
2017-Nov-14 23:23N 47°10' W 003°56'  

Dump ship's entire track history